Time;durP1;ratioP1;P1;durP2;ratioP2;P2;SDS_P1;SDS_P2;PMS_P1;PMS_P2;Temp;Humidity;BMP_temperature;BMP_pressure;BME280_temperature;BME280_humidity;BME280_pressure;Samples;Min_cycle;Max_cycle;Signal;HPM_P1;HPM_P2
2024/04/19 00:00:40;;;;;;;2.25;0.57;;;11.20;46.10;;;;;;6825273;26;19993;-66
2024/04/19 00:03:41;;;;;;;1.15;0.70;;;11.10;46.50;;;;;;6803521;26;20013;-67
2024/04/19 00:06:45;;;;;;;0.65;0.60;;;11.00;47.00;;;;;;6829051;25;20123;-67
2024/04/19 00:09:45;;;;;;;0.50;0.50;;;10.90;47.20;;;;;;6851057;25;20005;-68
2024/04/19 00:12:46;;;;;;;0.88;0.80;;;11.00;47.30;;;;;;6813298;26;19998;-67
2024/04/19 00:15:48;;;;;;;0.80;0.77;;;10.70;47.40;;;;;;6817191;26;20006;-66
2024/04/19 00:18:48;;;;;;;0.55;0.47;;;10.70;47.70;;;;;;6793145;26;20633;-68
2024/04/19 00:21:49;;;;;;;1.08;0.73;;;10.60;48.10;;;;;;6826019;26;19993;-68
2024/04/19 00:24:50;;;;;;;0.82;0.80;;;10.50;49.00;;;;;;6824936;25;20390;-67
2024/04/19 00:27:52;;;;;;;1.35;0.63;;;10.50;48.80;;;;;;6825311;26;20446;-67
2024/04/19 00:30:56;;;;;;;0.82;0.70;;;10.50;49.00;;;;;;6809855;26;20009;-66
2024/04/19 00:33:57;;;;;;;1.10;0.60;;;10.40;49.40;;;;;;6823435;26;20078;-67
2024/04/19 00:36:58;;;;;;;0.50;0.50;;;10.30;49.80;;;;;;6821735;26;20457;-65
2024/04/19 00:39:59;;;;;;;7.97;1.00;;;10.20;50.10;;;;;;6798436;26;20434;-66
2024/04/19 00:43:00;;;;;;;1.08;0.57;;;10.20;50.30;;;;;;6820452;26;19998;-67
2024/04/19 00:46:04;;;;;;;2.33;0.82;;;10.10;50.50;;;;;;6813456;25;20008;-69
2024/04/19 00:49:05;;;;;;;1.33;0.98;;;10.00;50.60;;;;;;6832768;26;19998;-64
2024/04/19 00:52:07;;;;;;;1.48;1.25;;;10.00;50.70;;;;;;6801516;26;20064;-66
2024/04/19 00:55:08;;;;;;;1.33;0.77;;;10.00;50.80;;;;;;6794224;26;19998;-68
2024/04/19 00:58:10;;;;;;;1.50;0.95;;;10.00;50.90;;;;;;6833560;26;19997;-68
2024/04/19 01:01:12;;;;;;;2.13;0.90;;;9.90;51.00;;;;;;6791249;26;20017;-67
2024/04/19 01:04:13;;;;;;;0.90;0.88;;;9.90;51.20;;;;;;6799065;26;20074;-68
2024/04/19 01:07:15;;;;;;;1.10;0.90;;;9.90;51.50;;;;;;6738944;26;19997;-68
2024/04/19 01:10:17;;;;;;;1.02;0.93;;;9.90;51.60;;;;;;6806227;26;20074;-68
2024/04/19 01:13:19;;;;;;;1.48;0.98;;;9.90;51.70;;;;;;6791424;26;19994;-66
2024/04/19 01:16:21;;;;;;;1.10;0.82;;;9.90;51.70;;;;;;6831087;25;20013;-66
2024/04/19 01:19:28;;;;;;;;;;;9.90;51.60;;;;;;6819704;26;19990;-66
2024/04/19 01:22:29;;;;;;;0.50;0.50;;;10.00;51.50;;;;;;6774582;26;19923;-67
2024/04/19 01:25:35;;;;;;;0.85;0.70;;;10.00;52.00;;;;;;6827079;26;19998;-67
2024/04/19 01:28:36;;;;;;;1.17;0.82;;;10.00;51.30;;;;;;6793197;26;20326;-67
2024/04/19 01:31:39;;;;;;;4.22;0.80;;;10.00;51.30;;;;;;6766623;26;20020;-68
2024/04/19 01:34:39;;;;;;;13.75;0.88;;;10.00;51.20;;;;;;6796789;26;20013;-68
2024/04/19 01:37:42;;;;;;;1.73;0.70;;;10.00;51.10;;;;;;6822373;26;20002;-68
2024/04/19 01:40:43;;;;;;;1.35;0.73;;;10.00;51.10;;;;;;6820846;26;19998;-66
2024/04/19 01:43:44;;;;;;;1.67;0.73;;;10.00;51.20;;;;;;6833953;25;20038;-66
2024/04/19 01:46:45;;;;;;;1.92;0.70;;;10.00;51.20;;;;;;6792930;26;20363;-68
2024/04/19 01:49:46;;;;;;;2.60;0.88;;;10.00;51.40;;;;;;6810614;26;19995;-68
2024/04/19 01:52:47;;;;;;;1.02;0.82;;;10.00;51.50;;;;;;6808687;26;20005;-68
2024/04/19 01:55:48;;;;;;;1.65;1.17;;;9.90;51.50;;;;;;6784948;26;20002;-66
2024/04/19 01:59:09;;;;;;;1.50;1.30;;;9.90;51.80;;;;;;6799902;26;19998;-66
2024/04/19 02:02:10;;;;;;;2.05;1.10;;;9.80;52.00;;;;;;6781709;26;20031;-67
2024/04/19 02:05:14;;;;;;;1.05;0.93;;;9.70;52.20;;;;;;6761987;26;20043;-67
2024/04/19 02:08:15;;;;;;;0.73;0.73;;;9.60;52.30;;;;;;6793450;26;20002;-68
2024/04/19 02:11:16;;;;;;;1.75;0.90;;;9.50;52.50;;;;;;6772545;26;20001;-68
2024/04/19 02:14:17;;;;;;;3.90;1.25;;;9.50;52.80;;;;;;6829856;26;20023;-64
2024/04/19 02:17:19;;;;;;;2.08;1.25;;;9.40;53.00;;;;;;6788726;26;20728;-66
2024/04/19 02:20:20;;;;;;;2.33;1.38;;;9.40;53.10;;;;;;6822608;25;20037;-67
2024/04/19 02:23:36;;;;;;;1.85;0.90;;;9.50;53.00;;;;;;6819953;26;19998;-66
2024/04/19 02:26:37;;;;;;;4.45;1.27;;;9.40;52.90;;;;;;6791744;26;20464;-67
2024/04/19 02:32:57;;;;;;;0.88;0.60;;;9.40;52.90;;;;;;6791556;26;19994;-67
2024/04/19 02:35:58;;;;;;;1.63;0.98;;;9.40;53.00;;;;;;6787972;26;20062;-67
2024/04/19 02:38:59;;;;;;;1.20;0.80;;;9.40;53.00;;;;;;6785678;26;20002;-66
2024/04/19 02:42:00;;;;;;;1.42;0.90;;;9.60;53.10;;;;;;6789988;26;20014;-66
2024/04/19 02:45:20;;;;;;;0.77;0.77;;;9.50;53.00;;;;;;6829568;26;20366;-66
2024/04/19 02:48:21;;;;;;;1.00;1.00;;;9.40;53.00;;;;;;6824668;26;20091;-70
2024/04/19 02:51:22;;;;;;;2.20;1.17;;;9.40;53.20;;;;;;6783035;26;20376;-67
2024/04/19 02:54:23;;;;;;;1.38;0.63;;;9.40;53.30;;;;;;6822091;26;20185;-67
2024/04/19 02:57:24;;;;;;;0.75;0.60;;;9.40;53.20;;;;;;6834266;26;19997;-67
2024/04/19 03:00:26;;;;;;;0.70;0.60;;;9.40;53.20;;;;;;6829872;26;20350;-67
2024/04/19 03:03:28;;;;;;;1.33;0.93;;;9.40;53.30;;;;;;6821871;26;20109;-68
2024/04/19 03:06:30;;;;;;;1.88;1.33;;;9.30;53.40;;;;;;6795541;26;19997;-66
2024/04/19 03:09:31;;;;;;;10.45;1.75;;;9.20;53.50;;;;;;6801391;26;20108;-67
2024/04/19 03:12:32;;;;;;;1.23;0.77;;;9.20;53.60;;;;;;6820842;26;19993;-67
2024/04/19 03:15:33;;;;;;;1.13;0.90;;;9.20;53.70;;;;;;6799138;26;20531;-64
2024/04/19 03:18:35;;;;;;;1.23;1.10;;;9.20;53.70;;;;;;6808122;26;20005;-67
2024/04/19 03:21:36;;;;;;;11.10;0.80;;;9.10;53.80;;;;;;6818950;25;20154;-67
2024/04/19 03:24:37;;;;;;;1.95;1.25;;;9.10;53.90;;;;;;6797621;26;20480;-68
2024/04/19 03:27:39;;;;;;;1.65;1.05;;;9.20;54.10;;;;;;6824619;26;20008;-66
2024/04/19 03:30:39;;;;;;;1.40;0.90;;;9.10;54.20;;;;;;6832090;25;19993;-67
2024/04/19 03:33:40;;;;;;;1.10;0.80;;;9.10;54.30;;;;;;6823499;26;20421;-66
2024/04/19 03:36:41;;;;;;;1.25;0.85;;;9.10;54.40;;;;;;6793360;26;20081;-66
2024/04/19 03:39:43;;;;;;;2.33;0.80;;;9.10;54.40;;;;;;6821422;26;20007;-66
2024/04/19 03:42:48;;;;;;;8.82;1.05;;;9.20;54.40;;;;;;6822430;26;19994;-67
2024/04/19 03:45:49;;;;;;;0.73;0.68;;;9.20;54.40;;;;;;6790595;26;20947;-66
2024/04/19 03:48:50;;;;;;;1.33;1.17;;;9.20;54.40;;;;;;6827961;26;20132;-67
2024/04/19 03:51:53;;;;;;;3.50;1.10;;;9.20;54.40;;;;;;6798762;26;20832;-66
2024/04/19 03:54:55;;;;;;;1.35;0.65;;;9.20;54.50;;;;;;6829258;26;20145;-67
2024/04/19 03:57:56;;;;;;;5.15;1.73;;;9.20;54.70;;;;;;6754293;26;20192;-66
2024/04/19 04:01:02;;;;;;;6.20;1.65;;;9.10;54.80;;;;;;6820882;26;20002;-67
2024/04/19 04:04:04;;;;;;;1.27;0.88;;;9.00;54.80;;;;;;6821619;26;20520;-68
2024/04/19 04:07:05;;;;;;;2.38;1.20;;;9.00;54.90;;;;;;6789920;26;20073;-67
2024/04/19 04:10:06;;;;;;;1.67;1.42;;;9.00;54.90;;;;;;6796811;26;20048;-68
2024/04/19 04:13:07;;;;;;;8.10;1.65;;;9.00;55.10;;;;;;6798099;26;20351;-68
2024/04/19 04:16:09;;;;;;;3.67;1.33;;;9.10;55.20;;;;;;6795966;26;20009;-65
2024/04/19 04:19:09;;;;;;;1.52;1.05;;;9.10;55.30;;;;;;6818503;26;20012;-68
2024/04/19 04:22:10;;;;;;;1.88;1.13;;;9.10;55.30;;;;;;6790233;26;20018;-67
2024/04/19 04:25:11;;;;;;;1.10;1.00;;;9.10;55.20;;;;;;6800568;26;20068;-67
2024/04/19 04:28:12;;;;;;;1.75;1.15;;;9.10;55.30;;;;;;6795154;26;20012;-67
2024/04/19 04:31:13;;;;;;;1.50;1.20;;;9.10;55.30;;;;;;6793592;26;20024;-68
2024/04/19 04:34:14;;;;;;;10.95;1.00;;;9.10;55.30;;;;;;6801837;26;20016;-66
2024/04/19 04:37:15;;;;;;;3.78;1.27;;;9.10;55.30;;;;;;6831661;26;20285;-68
2024/04/19 04:40:15;;;;;;;1.67;1.27;;;9.10;55.20;;;;;;6815517;26;20430;-67
2024/04/19 04:43:17;;;;;;;1.10;0.88;;;9.10;55.20;;;;;;6826170;26;20430;-67
2024/04/19 04:46:18;;;;;;;3.45;1.83;;;9.00;55.20;;;;;;6797362;26;20224;-65
2024/04/19 04:49:19;;;;;;;3.13;1.17;;;9.00;55.30;;;;;;6799363;26;20010;-67
2024/04/19 04:52:20;;;;;;;2.80;1.35;;;9.10;55.30;;;;;;6787000;26;20009;-65
2024/04/19 04:55:22;;;;;;;4.68;1.35;;;9.00;55.20;;;;;;6792251;26;19994;-67
2024/04/19 04:58:23;;;;;;;2.00;1.23;;;9.10;55.30;;;;;;6835422;26;20013;-67
2024/04/19 05:01:24;;;;;;;2.90;1.50;;;9.10;55.30;;;;;;6752440;26;19997;-66
2024/04/19 05:04:26;;;;;;;2.25;1.25;;;9.10;55.20;;;;;;6777539;26;20033;-65
2024/04/19 05:07:28;;;;;;;1.83;1.27;;;9.10;55.20;;;;;;6801633;26;20025;-66
2024/04/19 05:10:29;;;;;;;0.90;0.80;;;9.10;55.20;;;;;;6790210;26;19994;-65
2024/04/19 05:13:30;;;;;;;1.55;0.98;;;9.10;55.30;;;;;;6791187;26;20028;-67
2024/04/19 05:16:32;;;;;;;1.63;1.30;;;9.10;55.30;;;;;;6815888;26;20070;-67
2024/04/19 05:19:32;;;;;;;3.75;1.17;;;9.10;55.50;;;;;;6798775;26;20139;-67
2024/04/19 05:22:35;;;;;;;2.20;1.20;;;9.00;55.50;;;;;;6789432;26;20082;-68
2024/04/19 05:25:37;;;;;;;1.60;1.50;;;9.00;55.60;;;;;;6809056;26;20005;-67
2024/04/19 05:28:38;;;;;;;2.13;0.95;;;8.90;55.60;;;;;;6802330;26;19997;-66
2024/04/19 05:31:39;;;;;;;2.92;1.55;;;9.00;55.70;;;;;;6825436;25;20383;-68
2024/04/19 05:34:42;;;;;;;2.85;1.23;;;9.00;55.70;;;;;;6784883;26;20093;-67
2024/04/19 05:37:42;;;;;;;1.73;1.35;;;9.00;55.70;;;;;;6778946;26;20005;-66
2024/04/19 05:40:43;;;;;;;2.05;1.50;;;9.00;55.70;;;;;;6807959;26;20464;-67
2024/04/19 05:43:47;;;;;;;2.92;1.60;;;9.00;55.70;;;;;;6818259;26;20077;-67
2024/04/19 05:46:48;;;;;;;2.10;1.30;;;9.00;55.60;;;;;;6755322;26;19994;-66
2024/04/19 05:49:49;;;;;;;2.78;1.60;;;9.10;55.50;;;;;;6793126;26;20486;-67
2024/04/19 05:52:50;;;;;;;2.53;1.40;;;9.00;55.30;;;;;;6825812;26;20330;-65
2024/04/19 05:55:51;;;;;;;1.15;0.90;;;9.00;55.40;;;;;;6760993;26;20188;-66
2024/04/19 05:58:52;;;;;;;6.63;1.55;;;9.00;55.40;;;;;;6826572;26;20002;-67
2024/04/19 06:01:53;;;;;;;8.07;1.80;;;9.10;55.40;;;;;;6822702;26;19998;-67
2024/04/19 06:05:08;;;;;;;3.38;1.52;;;9.10;55.40;;;;;;6805974;26;20082;-68
2024/04/19 06:08:11;;;;;;;2.03;1.73;;;9.10;55.30;;;;;;6794969;26;20795;-67
2024/04/19 06:11:12;;;;;;;1.48;1.17;;;9.20;55.30;;;;;;6814593;26;20034;-67
2024/04/19 06:14:13;;;;;;;2.30;1.73;;;9.30;55.20;;;;;;6821844;26;19990;-67
2024/04/19 06:17:13;;;;;;;7.40;1.95;;;9.20;55.10;;;;;;6768687;26;20626;-65
2024/04/19 06:20:14;;;;;;;4.65;1.52;;;9.30;55.00;;;;;;6803368;26;20166;-66
2024/04/19 06:23:15;;;;;;;5.25;1.50;;;9.40;54.80;;;;;;6813911;26;20021;-68
2024/04/19 06:26:16;;;;;;;2.60;1.50;;;9.50;54.60;;;;;;6789542;26;19994;-68
2024/04/19 06:29:18;;;;;;;2.35;1.08;;;9.50;54.40;;;;;;6833318;26;20748;-67
2024/04/19 06:32:18;;;;;;;3.03;1.77;;;9.40;54.20;;;;;;6757326;26;20004;-67
2024/04/19 06:35:21;;;;;;;1.75;1.45;;;9.40;54.10;;;;;;6759535;26;19993;-69
2024/04/19 06:38:22;;;;;;;2.63;1.58;;;9.40;54.00;;;;;;6800764;26;20001;-66
2024/04/19 06:41:23;;;;;;;4.60;2.00;;;9.40;54.00;;;;;;6803674;26;20401;-66
2024/04/19 06:44:24;;;;;;;4.60;1.88;;;9.50;54.10;;;;;;6822309;26;19993;-67
2024/04/19 06:47:26;;;;;;;2.80;1.63;;;9.50;54.00;;;;;;6788961;26;20310;-69
2024/04/19 06:50:28;;;;;;;2.08;1.52;;;9.70;54.00;;;;;;6831008;26;19997;-67
2024/04/19 06:53:29;;;;;;;8.18;2.10;;;9.80;53.70;;;;;;6834157;26;20102;-66
2024/04/19 06:56:31;;;;;;;3.35;1.40;;;9.90;53.40;;;;;;6815424;26;20076;-66
2024/04/19 06:59:32;;;;;;;1.90;1.50;;;10.00;53.20;;;;;;6828978;26;19997;-66
2024/04/19 07:02:33;;;;;;;1.90;1.48;;;10.10;52.90;;;;;;6826706;26;19998;-68
2024/04/19 07:05:34;;;;;;;2.25;1.45;;;10.20;52.70;;;;;;6802082;26;20291;-68
2024/04/19 07:08:35;;;;;;;1.80;1.20;;;10.30;52.60;;;;;;6793471;25;20012;-67
2024/04/19 07:11:36;;;;;;;1.75;1.27;;;10.40;52.40;;;;;;6823030;26;20761;-69
2024/04/19 07:14:37;;;;;;;1.90;1.27;;;10.60;52.00;;;;;;6798434;26;20051;-67
2024/04/19 07:17:39;;;;;;;1.73;1.30;;;10.60;51.80;;;;;;6812005;26;20089;-67
2024/04/19 07:20:40;;;;;;;2.22;1.38;;;10.80;51.60;;;;;;6787827;26;19994;-68
2024/04/19 07:23:41;;;;;;;2.28;1.40;;;10.90;51.20;;;;;;6833282;26;20012;-67
2024/04/19 07:26:42;;;;;;;3.35;1.55;;;11.00;51.00;;;;;;6799052;26;20056;-67
2024/04/19 07:29:43;;;;;;;5.63;2.05;;;11.00;50.80;;;;;;6790736;26;19994;-69
2024/04/19 07:32:43;;;;;;;2.38;1.75;;;11.20;50.60;;;;;;6785289;26;20005;-68
2024/04/19 07:35:45;;;;;;;1.65;1.50;;;11.30;50.50;;;;;;6820556;26;19994;-67
2024/04/19 07:38:46;;;;;;;1.45;1.30;;;11.40;50.00;;;;;;6787263;26;20008;-67
2024/04/19 07:41:47;;;;;;;2.15;1.38;;;11.50;49.60;;;;;;6767775;26;19994;-65
2024/04/19 07:44:47;;;;;;;4.10;1.38;;;11.60;49.40;;;;;;6827464;25;20275;-69
2024/04/19 07:47:53;;;;;;;4.85;1.25;;;11.70;49.40;;;;;;6772487;26;20461;-69
2024/04/19 07:50:54;;;;;;;3.35;1.77;;;11.90;48.90;;;;;;6793988;26;20010;-66
2024/04/19 07:53:54;;;;;;;2.53;1.90;;;12.00;48.40;;;;;;6787241;26;20008;-68
2024/04/19 07:56:55;;;;;;;2.38;1.52;;;12.10;47.90;;;;;;6821946;26;20495;-68
2024/04/19 07:59:56;;;;;;;5.10;2.03;;;12.20;47.70;;;;;;6793353;26;20363;-67
2024/04/19 08:02:57;;;;;;;1.55;1.17;;;12.20;47.60;;;;;;6759032;26;20081;-67
2024/04/19 08:06:00;;;;;;;2.08;1.58;;;12.30;47.20;;;;;;6772104;26;19997;-68
2024/04/19 08:09:01;;;;;;;2.20;1.45;;;12.30;46.70;;;;;;6832392;26;19997;-68
2024/04/19 08:12:04;;;;;;;5.03;1.50;;;12.30;46.70;;;;;;6769847;26;20062;-67
2024/04/19 08:15:06;;;;;;;1.38;1.20;;;12.40;46.70;;;;;;6797291;26;20896;-68
2024/04/19 08:18:09;;;;;;;3.30;1.80;;;12.50;46.40;;;;;;6803011;26;19994;-67
2024/04/19 08:21:10;;;;;;;3.55;1.40;;;12.60;46.20;;;;;;6824598;26;20085;-66
2024/04/19 08:24:11;;;;;;;2.88;1.55;;;12.80;46.20;;;;;;6824311;26;20009;-67
2024/04/19 08:27:12;;;;;;;1.30;1.00;;;13.00;45.40;;;;;;6776662;26;20012;-66
2024/04/19 08:30:13;;;;;;;5.07;2.45;;;13.20;45.20;;;;;;6793654;26;20524;-67
2024/04/19 08:33:15;;;;;;;5.30;2.42;;;13.40;44.70;;;;;;6758047;26;19993;-67
2024/04/19 08:36:16;;;;;;;2.45;1.55;;;13.60;43.80;;;;;;6743917;26;20088;-67
2024/04/19 08:39:17;;;;;;;1.88;1.23;;;13.80;43.40;;;;;;6795286;26;20021;-67
2024/04/19 08:42:19;;;;;;;1.30;1.20;;;13.90;43.10;;;;;;6748002;26;20140;-67
2024/04/19 08:45:21;;;;;;;4.20;1.35;;;14.00;42.90;;;;;;6823678;26;19997;-68
2024/04/19 08:48:22;;;;;;;1.83;1.05;;;14.30;42.90;;;;;;6799048;26;20017;-67
2024/04/19 08:51:25;;;;;;;1.85;1.05;;;14.50;42.10;;;;;;6817825;25;19997;-68
2024/04/19 08:54:31;;;;;;;4.22;1.20;;;14.80;41.70;;;;;;6802564;26;19993;-68
2024/04/19 08:57:36;;;;;;;3.25;1.70;;;15.00;41.10;;;;;;6815601;26;19989;-66
2024/04/19 09:00:37;;;;;;;1.85;0.88;;;15.30;40.20;;;;;;6829288;26;20113;-66
2024/04/19 09:03:40;;;;;;;2.17;1.40;;;15.40;40.10;;;;;;6831576;26;20485;-67
2024/04/19 09:06:42;;;;;;;2.25;1.60;;;15.50;39.90;;;;;;6815318;26;20020;-67
2024/04/19 09:09:47;;;;;;;2.13;1.27;;;15.60;39.70;;;;;;6832909;26;20146;-68
2024/04/19 09:12:50;;;;;;;5.00;1.90;;;15.70;39.60;;;;;;6818079;26;20009;-67
2024/04/19 09:15:50;;;;;;;1.75;1.13;;;15.80;39.50;;;;;;6829545;26;20574;-68
2024/04/19 09:18:54;;;;;;;2.60;1.45;;;15.80;38.90;;;;;;6827178;25;20110;-68
2024/04/19 09:21:57;;;;;;;3.35;1.60;;;15.90;38.80;;;;;;6824752;26;20001;-68
2024/04/19 09:24:58;;;;;;;2.60;1.52;;;15.90;38.90;;;;;;6829751;25;20090;-68
2024/04/19 09:28:00;;;;;;;4.63;1.50;;;16.10;38.50;;;;;;6823611;25;19997;-68
2024/04/19 09:31:01;;;;;;;2.03;1.35;;;16.10;37.90;;;;;;6826992;25;20029;-68
2024/04/19 09:34:02;;;;;;;2.33;1.40;;;16.20;37.90;;;;;;6820469;25;20009;-68
2024/04/19 09:37:05;;;;;;;1.88;1.10;;;16.10;37.80;;;;;;6775872;26;20005;-66
2024/04/19 09:40:07;;;;;;;1.30;1.05;;;16.20;37.90;;;;;;6830742;26;19997;-68
2024/04/19 09:43:15;;;;;;;2.33;1.50;;;16.40;37.20;;;;;;6811354;26;20009;-70
2024/04/19 09:46:26;;;;;;;11.18;4.32;;;16.50;37.20;;;;;;6835439;26;20081;-68
2024/04/19 09:49:31;;;;;;;3.97;2.17;;;16.60;37.00;;;;;;6814969;26;20494;-68
2024/04/19 09:52:38;;;;;;;3.70;1.92;;;16.80;37.00;;;;;;6832297;25;19997;-68
2024/04/19 09:56:00;;;;;;;5.55;2.13;;;16.90;36.70;;;;;;6814286;26;20117;-67
2024/04/19 09:59:02;;;;;;;4.78;2.20;;;17.10;36.80;;;;;;6789902;26;20027;-71
2024/04/19 10:02:04;;;;;;;4.75;2.30;;;17.30;36.30;;;;;;6789786;26;20140;-68
2024/04/19 10:05:07;;;;;;;4.95;2.20;;;17.50;35.90;;;;;;6795353;26;19995;-67
2024/04/19 10:08:08;;;;;;;6.88;2.63;;;17.80;35.60;;;;;;6819252;26;19998;-68
2024/04/19 10:11:10;;;;;;;5.47;2.78;;;18.00;35.50;;;;;;6820671;25;20306;-67
2024/04/19 10:14:12;;;;;;;5.85;2.42;;;18.20;35.10;;;;;;6826035;26;20058;-66
2024/04/19 10:17:13;;;;;;;3.13;2.15;;;18.40;34.50;;;;;;6785468;26;20031;-68
2024/04/19 10:20:16;;;;;;;4.38;2.28;;;18.50;34.10;;;;;;6821054;25;20013;-66
2024/04/19 10:23:19;;;;;;;2.65;2.03;;;18.40;34.00;;;;;;6838775;26;20123;-68
2024/04/19 10:26:25;;;;;;;3.75;1.52;;;18.50;34.40;;;;;;6787352;26;20009;-67
2024/04/19 10:29:27;;;;;;;4.32;2.28;;;18.50;34.40;;;;;;6820505;26;20001;-67
2024/04/19 10:32:29;;;;;;;1.88;1.40;;;18.70;34.30;;;;;;6796121;26;20031;-66
2024/04/19 10:35:37;;;;;;;3.72;2.13;;;18.80;34.10;;;;;;6791101;26;20006;-68
2024/04/19 10:38:38;;;;;;;3.15;1.92;;;18.90;34.20;;;;;;6795452;26;20647;-69
2024/04/19 10:41:53;;;;;;;11.13;3.92;;;19.00;34.10;;;;;;6800455;26;19997;-68
2024/04/19 10:44:54;;;;;;;5.07;2.70;;;19.10;33.80;;;;;;6821285;26;20093;-68
2024/04/19 10:47:54;;;;;;;18.80;2.42;;;19.10;33.70;;;;;;6817820;26;20025;-67
2024/04/19 10:50:55;;;;;;;5.82;2.47;;;19.20;33.70;;;;;;6800333;26;20135;-67
2024/04/19 10:53:56;;;;;;;3.17;1.80;;;19.20;33.70;;;;;;6796458;26;20615;-67
2024/04/19 10:56:58;;;;;;;3.35;2.00;;;19.30;33.50;;;;;;6826497;26;21496;-68
2024/04/19 11:00:00;;;;;;;4.70;2.38;;;19.30;33.40;;;;;;6840149;26;20461;-68
2024/04/19 11:03:02;;;;;;;5.57;2.33;;;19.30;33.40;;;;;;6823480;25;20322;-67
2024/04/19 11:06:03;;;;;;;5.05;1.92;;;19.30;33.30;;;;;;6826721;26;19998;-66
2024/04/19 11:09:05;;;;;;;3.92;2.42;;;19.30;33.30;;;;;;6819796;26;20009;-67
2024/04/19 11:12:06;;;;;;;3.67;1.95;;;19.30;33.30;;;;;;6833340;26;20009;-68
2024/04/19 11:15:08;;;;;;;8.98;2.25;;;19.40;33.20;;;;;;6825082;26;21162;-66
2024/04/19 11:18:09;;;;;;;4.05;2.30;;;19.40;32.70;;;;;;6827827;25;20160;-67
2024/04/19 11:21:11;;;;;;;4.45;2.20;;;19.40;32.70;;;;;;6830099;25;20031;-67
2024/04/19 11:24:12;;;;;;;4.03;1.92;;;19.50;32.40;;;;;;6833091;25;20856;-67
2024/04/19 11:27:13;;;;;;;4.60;2.30;;;19.60;32.40;;;;;;6814565;25;20002;-67
2024/04/19 11:30:17;;;;;;;3.63;2.05;;;19.70;32.30;;;;;;6819745;26;20789;-67
2024/04/19 11:33:18;;;;;;;5.50;2.08;;;19.80;32.00;;;;;;6825629;26;20128;-67
2024/04/19 11:36:19;;;;;;;7.25;1.90;;;19.90;31.80;;;;;;6824594;26;20483;-70
2024/04/19 11:39:20;;;;;;;5.10;2.00;;;20.00;31.70;;;;;;6827786;25;20049;-67
2024/04/19 11:42:22;;;;;;;2.83;1.85;;;20.10;31.60;;;;;;6832267;26;19993;-68
2024/04/19 11:45:23;;;;;;;3.60;2.10;;;20.20;31.60;;;;;;6825583;25;20012;-67
2024/04/19 11:48:25;;;;;;;4.10;1.83;;;20.40;31.30;;;;;;6824310;26;19993;-67
2024/04/19 11:51:27;;;;;;;3.05;1.60;;;20.70;31.10;;;;;;6823691;25;20012;-67
2024/04/19 11:54:31;;;;;;;1.90;1.33;;;21.20;30.50;;;;;;6823351;25;20013;-68
2024/04/19 11:57:33;;;;;;;1.23;0.95;;;21.40;29.90;;;;;;6827883;26;19997;-67
2024/04/19 12:00:34;;;;;;;1.13;0.80;;;21.50;29.10;;;;;;6790314;26;20013;-68
2024/04/19 12:03:35;;;;;;;1.65;0.93;;;21.70;28.90;;;;;;6787726;26;20012;-67
2024/04/19 12:06:36;;;;;;;1.55;1.00;;;22.00;28.50;;;;;;6806344;26;20021;-67
2024/04/19 12:09:39;;;;;;;1.48;1.00;;;22.30;28.10;;;;;;6824258;26;20513;-67
2024/04/19 12:12:40;;;;;;;1.42;1.20;;;23.00;27.50;;;;;;6829855;26;20394;-68
2024/04/19 12:15:41;;;;;;;0.88;0.80;;;23.30;26.50;;;;;;6800881;26;20009;-66
2024/04/19 12:18:42;;;;;;;2.50;1.42;;;23.40;26.10;;;;;;6792463;26;20009;-67
2024/04/19 12:21:44;;;;;;;1.25;0.75;;;23.30;26.10;;;;;;6797068;26;20043;-68
2024/04/19 12:24:46;;;;;;;0.80;0.80;;;23.00;25.90;;;;;;6804153;25;20073;-68
2024/04/19 12:27:47;;;;;;;1.65;1.00;;;22.80;26.20;;;;;;6781144;26;19994;-67
2024/04/19 12:30:51;;;;;;;2.28;1.00;;;22.80;26.00;;;;;;6745228;25;20293;-69
2024/04/19 12:33:52;;;;;;;0.88;0.73;;;22.60;26.00;;;;;;6758467;26;20372;-68
2024/04/19 12:36:53;;;;;;;1.40;0.75;;;22.70;25.80;;;;;;6783253;26;19997;-68
2024/04/19 12:39:55;;;;;;;2.40;1.17;;;22.90;25.00;;;;;;6786386;26;20418;-69
2024/04/19 12:42:56;;;;;;;1.77;1.00;;;23.30;25.10;;;;;;6817467;26;19998;-68
2024/04/19 12:45:57;;;;;;;2.78;0.95;;;23.70;24.50;;;;;;6780644;26;20073;-68
2024/04/19 12:49:04;;;;;;;1.13;0.75;;;23.80;24.30;;;;;;6830716;26;20008;-67
2024/04/19 12:52:06;;;;;;;1.30;0.90;;;24.00;24.20;;;;;;6791907;25;20005;-67
2024/04/19 12:55:07;;;;;;;1.58;0.75;;;24.00;24.10;;;;;;6789842;26;20017;-68
2024/04/19 12:58:08;;;;;;;0.85;0.85;;;23.80;24.10;;;;;;6834902;26;20571;-67
2024/04/19 13:01:09;;;;;;;1.00;0.70;;;23.40;24.20;;;;;;6792611;26;20015;-72
2024/04/19 13:04:11;;;;;;;0.88;0.80;;;23.00;24.40;;;;;;6801700;25;20387;-68
2024/04/19 13:07:12;;;;;;;0.50;0.47;;;22.90;24.50;;;;;;6828852;25;19997;-66
2024/04/19 13:10:15;;;;;;;0.85;0.70;;;23.00;24.40;;;;;;6829922;26;20001;-67
2024/04/19 13:13:16;;;;;;;1.15;0.80;;;23.60;23.90;;;;;;6834639;25;20006;-68
2024/04/19 13:16:22;;;;;;;1.75;0.70;;;24.70;23.30;;;;;;6781212;26;20110;-65
2024/04/19 13:19:26;;;;;;;0.80;0.73;;;25.50;22.30;;;;;;6789380;26;20072;-67
2024/04/19 13:22:27;;;;;;;1.00;0.75;;;26.60;21.90;;;;;;6773439;26;19993;-69
2024/04/19 13:25:28;;;;;;;1.45;0.77;;;28.00;21.10;;;;;;6746842;26;20016;-70
2024/04/19 13:28:28;;;;;;;0.90;0.82;;;29.10;19.80;;;;;;6766645;26;19997;-69
2024/04/19 13:31:29;;;;;;;2.00;0.95;;;29.80;19.40;;;;;;6801114;25;20318;-67
2024/04/19 13:34:30;;;;;;;2.92;1.35;;;30.60;18.80;;;;;;6791746;26;20041;-67
2024/04/19 13:37:32;;;;;;;1.73;0.70;;;31.40;18.00;;;;;;6824854;26;20389;-68
2024/04/19 13:40:32;;;;;;;2.28;0.85;;;31.90;17.60;;;;;;6798441;26;20009;-68
2024/04/19 13:43:33;;;;;;;3.70;0.80;;;32.00;16.80;;;;;;6825689;25;20417;-69
2024/04/19 13:46:34;;;;;;;1.85;0.80;;;32.00;16.80;;;;;;6764312;26;20095;-68
2024/04/19 13:49:37;;;;;;;4.95;0.68;;;32.10;16.60;;;;;;6798135;26;20028;-69
2024/04/19 13:52:38;;;;;;;1.40;0.82;;;32.50;16.70;;;;;;6799159;26;20040;-70
2024/04/19 13:55:39;;;;;;;3.50;0.95;;;33.30;16.40;;;;;;6767982;26;19994;-68
2024/04/19 13:58:40;;;;;;;0.73;0.50;;;33.80;16.00;;;;;;6816445;26;20008;-68
2024/04/19 14:01:41;;;;;;;2.47;0.60;;;33.70;15.90;;;;;;6748162;26;20002;-67
2024/04/19 14:04:42;;;;;;;2.50;0.73;;;33.60;15.60;;;;;;6784298;26;20500;-68
2024/04/19 14:07:43;;;;;;;1.17;0.57;;;33.00;15.00;;;;;;6793791;26;20064;-67
2024/04/19 14:10:45;;;;;;;0.60;0.40;;;32.30;14.50;;;;;;6793455;26;20074;-69
2024/04/19 14:13:46;;;;;;;2.97;0.55;;;31.70;14.50;;;;;;6820140;26;20097;-69
2024/04/19 14:16:49;;;;;;;0.30;0.30;;;30.80;14.60;;;;;;6765976;26;20472;-69
2024/04/19 14:19:53;;;;;;;2.63;0.40;;;29.90;14.40;;;;;;6794502;26;19994;-69
2024/04/19 14:22:53;;;;;;;0.88;0.40;;;28.70;14.70;;;;;;6825671;25;20006;-68
2024/04/19 14:25:56;;;;;;;1.85;0.60;;;27.30;15.00;;;;;;6792503;26;20007;-66
2024/04/19 14:28:57;;;;;;;0.50;0.50;;;26.00;15.50;;;;;;6796663;26;20038;-66
2024/04/19 14:31:59;;;;;;;2.10;0.65;;;25.10;16.10;;;;;;6815697;26;19994;-69
2024/04/19 14:35:00;;;;;;;1.52;0.75;;;24.50;16.70;;;;;;6770595;26;20002;-67
2024/04/19 14:38:01;;;;;;;0.30;0.20;;;24.10;17.10;;;;;;6821474;25;20082;-67
2024/04/19 14:41:03;;;;;;;0.43;0.32;;;23.70;17.40;;;;;;6767617;26;20001;-67
2024/04/19 14:44:04;;;;;;;3.03;0.43;;;23.30;17.80;;;;;;6774413;26;20030;-68
2024/04/19 14:47:06;;;;;;;0.40;0.40;;;23.00;18.20;;;;;;6796738;26;19997;-68
2024/04/19 14:50:07;;;;;;;1.60;0.40;;;22.80;18.60;;;;;;6784551;26;19997;-68
2024/04/19 14:53:08;;;;;;;0.65;0.40;;;22.50;18.70;;;;;;6793096;26;20009;-69
2024/04/19 14:56:09;;;;;;;1.80;0.47;;;22.10;19.10;;;;;;6830129;26;19994;-68
2024/04/19 14:59:10;;;;;;;0.50;0.40;;;21.70;19.50;;;;;;6805310;26;19997;-68
2024/04/19 15:02:11;;;;;;;0.30;0.30;;;21.30;19.80;;;;;;6828646;26;20641;-69
2024/04/19 15:05:14;;;;;;;1.75;0.70;;;21.00;20.30;;;;;;6825499;26;20004;-67
2024/04/19 15:08:14;;;;;;;0.93;0.47;;;20.60;20.60;;;;;;6799647;26;19997;-68
2024/04/19 15:11:16;;;;;;;0.70;0.50;;;20.50;21.00;;;;;;6809010;26;20027;-67
2024/04/19 15:14:17;;;;;;;0.70;0.28;;;20.40;21.30;;;;;;6828977;26;20091;-68
2024/04/19 15:17:18;;;;;;;0.73;0.40;;;20.30;21.30;;;;;;6808191;26;20468;-67
2024/04/19 15:20:21;;;;;;;1.60;0.45;;;20.30;21.30;;;;;;6801485;26;20519;-68
2024/04/19 15:23:22;;;;;;;0.20;0.20;;;20.20;21.20;;;;;;6813181;25;20375;-67
2024/04/19 15:26:24;;;;;;;0.57;0.30;;;20.30;21.20;;;;;;6827344;25;20133;-67
2024/04/19 15:29:24;;;;;;;2.05;0.65;;;20.50;20.90;;;;;;6816279;26;20010;-66
2024/04/19 15:32:25;;;;;;;0.30;0.30;;;20.60;21.30;;;;;;6828136;25;19993;-68
2024/04/19 15:35:28;;;;;;;0.60;0.50;;;20.70;20.80;;;;;;6833893;26;19994;-66
2024/04/19 15:38:29;;;;;;;0.30;0.30;;;20.70;20.80;;;;;;6827349;25;20428;-67
2024/04/19 15:41:31;;;;;;;0.40;0.40;;;20.70;20.60;;;;;;6832096;25;20899;-67
2024/04/19 15:44:33;;;;;;;0.50;0.50;;;20.70;20.60;;;;;;6818994;25;20018;-67
2024/04/19 15:47:35;;;;;;;0.40;0.35;;;20.80;20.80;;;;;;6829678;25;20053;-68
2024/04/19 15:50:37;;;;;;;0.40;0.38;;;20.80;20.90;;;;;;6830057;25;20568;-67
2024/04/19 15:53:39;;;;;;;0.75;0.50;;;20.80;21.00;;;;;;6835265;25;20433;-68